sensor_id;sensor_type;location;lat;lon;timestamp;P1;durP1;ratioP1;P2;durP2;ratioP2
10275;SDS011;5183;51.190;6.820;2024-02-14T16:29:50;2.60;;;2.10;;
10275;SDS011;5183;51.190;6.820;2024-02-14T16:32:17;2.97;;;2.10;;
10275;SDS011;5183;51.190;6.820;2024-02-14T16:34:44;2.30;;;1.90;;
10275;SDS011;5183;51.190;6.820;2024-02-14T16:37:13;3.37;;;1.87;;
10275;SDS011;5183;51.190;6.820;2024-02-14T16:39:43;2.00;;;1.90;;
10275;SDS011;5183;51.190;6.820;2024-02-14T16:42:10;2.60;;;2.10;;
10275;SDS011;5183;51.190;6.820;2024-02-14T16:44:37;1.98;;;1.73;;
10275;SDS011;5183;51.190;6.820;2024-02-14T16:47:04;3.40;;;1.83;;
10275;SDS011;5183;51.190;6.820;2024-02-14T16:49:31;2.97;;;2.30;;
10275;SDS011;5183;51.190;6.820;2024-02-14T16:51:58;2.70;;;1.70;;
10275;SDS011;5183;51.190;6.820;2024-02-14T16:54:25;2.60;;;1.73;;
10275;SDS011;5183;51.190;6.820;2024-02-14T16:56:54;1.97;;;1.53;;
10275;SDS011;5183;51.190;6.820;2024-02-14T16:59:30;1.90;;;1.75;;
10275;SDS011;5183;51.190;6.820;2024-02-14T17:01:57;2.83;;;1.90;;
10275;SDS011;5183;51.190;6.820;2024-02-14T17:04:24;1.90;;;1.77;;
10275;SDS011;5183;51.190;6.820;2024-02-14T17:06:52;2.50;;;1.93;;
10275;SDS011;5183;51.190;6.820;2024-02-14T17:09:19;3.73;;;2.30;;
10275;SDS011;5183;51.190;6.820;2024-02-14T17:11:46;2.60;;;2.40;;
10275;SDS011;5183;51.190;6.820;2024-02-14T17:14:14;3.70;;;2.40;;
10275;SDS011;5183;51.190;6.820;2024-02-14T17:16:41;5.00;;;3.70;;
10275;SDS011;5183;51.190;6.820;2024-02-14T17:19:08;4.00;;;3.10;;
10275;SDS011;5183;51.190;6.820;2024-02-14T17:21:37;3.20;;;2.70;;
10275;SDS011;5183;51.190;6.820;2024-02-14T17:24:04;3.43;;;3.13;;
10275;SDS011;5183;51.190;6.820;2024-02-14T17:26:31;4.23;;;3.13;;
10275;SDS011;5183;51.190;6.820;2024-02-14T17:28:58;3.50;;;3.20;;
10275;SDS011;5183;51.190;6.820;2024-02-14T17:31:26;3.07;;;2.70;;
10275;SDS011;5183;51.190;6.820;2024-02-14T17:33:53;4.30;;;2.87;;
10275;SDS011;5183;51.190;6.820;2024-02-14T17:36:20;2.97;;;2.63;;
10275;SDS011;5183;51.190;6.820;2024-02-14T17:38:48;2.90;;;2.53;;
10275;SDS011;5183;51.190;6.820;2024-02-14T17:41:15;3.63;;;2.50;;
10275;SDS011;5183;51.190;6.820;2024-02-14T17:43:43;4.27;;;3.30;;
10275;SDS011;5183;51.190;6.820;2024-02-14T17:46:10;3.95;;;3.30;;
10275;SDS011;5183;51.190;6.820;2024-02-14T17:48:38;3.20;;;2.90;;
10275;SDS011;5183;51.190;6.820;2024-02-14T17:51:05;3.10;;;2.80;;
10275;SDS011;5183;51.190;6.820;2024-02-14T17:53:32;3.13;;;2.90;;
10275;SDS011;5183;51.190;6.820;2024-02-14T17:55:59;3.30;;;3.00;;
10275;SDS011;5183;51.190;6.820;2024-02-14T17:58:25;3.90;;;2.80;;
10275;SDS011;5183;51.190;6.820;2024-02-14T18:00:54;3.47;;;2.70;;
10275;SDS011;5183;51.190;6.820;2024-02-14T18:03:21;3.37;;;2.90;;
10275;SDS011;5183;51.190;6.820;2024-02-14T18:05:49;3.37;;;3.07;;
10275;SDS011;5183;51.190;6.820;2024-02-14T18:08:16;4.70;;;2.90;;
10275;SDS011;5183;51.190;6.820;2024-02-14T18:10:42;3.40;;;2.78;;
10275;SDS011;5183;51.190;6.820;2024-02-14T18:13:11;3.00;;;2.60;;
10275;SDS011;5183;51.190;6.820;2024-02-14T18:15:38;3.77;;;2.80;;
10275;SDS011;5183;51.190;6.820;2024-02-14T18:18:05;3.05;;;2.70;;
10275;SDS011;5183;51.190;6.820;2024-02-14T18:20:32;3.20;;;2.90;;
10275;SDS011;5183;51.190;6.820;2024-02-14T18:23:01;3.17;;;2.40;;
10275;SDS011;5183;51.190;6.820;2024-02-14T18:25:28;3.83;;;2.53;;
10275;SDS011;5183;51.190;6.820;2024-02-14T18:27:55;3.30;;;3.00;;
10275;SDS011;5183;51.190;6.820;2024-02-14T18:30:22;2.60;;;2.40;;
10275;SDS011;5183;51.190;6.820;2024-02-14T18:32:49;3.37;;;3.00;;
10275;SDS011;5183;51.190;6.820;2024-02-14T18:35:16;5.60;;;3.40;;
10275;SDS011;5183;51.190;6.820;2024-02-14T18:37:43;4.83;;;3.10;;
10275;SDS011;5183;51.190;6.820;2024-02-14T18:40:12;4.00;;;3.60;;
10275;SDS011;5183;51.190;6.820;2024-02-14T18:42:39;3.80;;;3.50;;
10275;SDS011;5183;51.190;6.820;2024-02-14T18:45:06;4.70;;;3.63;;
10275;SDS011;5183;51.190;6.820;2024-02-14T18:47:35;5.47;;;3.80;;
10275;SDS011;5183;51.190;6.820;2024-02-14T18:50:06;3.23;;;2.93;;
10275;SDS011;5183;51.190;6.820;2024-02-14T18:52:33;3.40;;;3.10;;
10275;SDS011;5183;51.190;6.820;2024-02-14T18:55:00;3.53;;;2.87;;
10275;SDS011;5183;51.190;6.820;2024-02-14T18:57:28;3.33;;;3.03;;
10275;SDS011;5183;51.190;6.820;2024-02-14T18:59:55;2.70;;;2.50;;
10275;SDS011;5183;51.190;6.820;2024-02-14T19:02:23;3.30;;;3.00;;
10275;SDS011;5183;51.190;6.820;2024-02-14T19:04:50;3.57;;;3.23;;
10275;SDS011;5183;51.190;6.820;2024-02-14T19:07:17;3.07;;;2.87;;
10275;SDS011;5183;51.190;6.820;2024-02-14T19:09:44;3.73;;;3.33;;
10275;SDS011;5183;51.190;6.820;2024-02-14T19:12:11;5.10;;;3.60;;
10275;SDS011;5183;51.190;6.820;2024-02-14T19:14:40;4.50;;;3.80;;
10275;SDS011;5183;51.190;6.820;2024-02-14T19:17:08;4.90;;;4.40;;
10275;SDS011;5183;51.190;6.820;2024-02-14T19:19:35;4.73;;;4.20;;
10275;SDS011;5183;51.190;6.820;2024-02-14T19:22:02;5.07;;;4.57;;
10275;SDS011;5183;51.190;6.820;2024-02-14T19:24:31;5.03;;;4.53;;
10275;SDS011;5183;51.190;6.820;2024-02-14T19:26:58;5.53;;;3.67;;
10275;SDS011;5183;51.190;6.820;2024-02-14T19:29:25;4.73;;;4.00;;
10275;SDS011;5183;51.190;6.820;2024-02-14T19:31:53;4.27;;;3.70;;
10275;SDS011;5183;51.190;6.820;2024-02-14T19:34:20;4.60;;;4.10;;
10275;SDS011;5183;51.190;6.820;2024-02-14T19:36:50;3.90;;;3.33;;
10275;SDS011;5183;51.190;6.820;2024-02-14T19:39:17;3.33;;;3.03;;
10275;SDS011;5183;51.190;6.820;2024-02-14T19:41:44;4.30;;;3.57;;
10275;SDS011;5183;51.190;6.820;2024-02-14T19:44:11;4.50;;;3.40;;
10275;SDS011;5183;51.190;6.820;2024-02-14T19:46:37;4.40;;;3.57;;
10275;SDS011;5183;51.190;6.820;2024-02-14T19:49:06;3.90;;;3.40;;
10275;SDS011;5183;51.190;6.820;2024-02-14T19:51:34;4.80;;;3.67;;
10275;SDS011;5183;51.190;6.820;2024-02-14T19:54:01;5.13;;;4.20;;
10275;SDS011;5183;51.190;6.820;2024-02-14T19:56:28;4.90;;;3.93;;
10275;SDS011;5183;51.190;6.820;2024-02-14T19:58:55;5.60;;;4.43;;
10275;SDS011;5183;51.190;6.820;2024-02-14T20:01:22;7.40;;;4.20;;
10275;SDS011;5183;51.190;6.820;2024-02-14T20:03:49;5.13;;;4.27;;
10275;SDS011;5183;51.190;6.820;2024-02-14T20:06:18;5.37;;;3.83;;
10275;SDS011;5183;51.190;6.820;2024-02-14T20:08:44;5.47;;;4.73;;
10275;SDS011;5183;51.190;6.820;2024-02-14T20:11:11;6.57;;;4.53;;
10275;SDS011;5183;51.190;6.820;2024-02-14T20:13:38;6.07;;;4.73;;
10275;SDS011;5183;51.190;6.820;2024-02-14T20:16:06;7.13;;;4.80;;
10275;SDS011;5183;51.190;6.820;2024-02-14T20:18:33;6.37;;;4.60;;
10275;SDS011;5183;51.190;6.820;2024-02-14T20:21:00;5.43;;;4.87;;
10275;SDS011;5183;51.190;6.820;2024-02-14T20:23:28;7.33;;;5.30;;
10275;SDS011;5183;51.190;6.820;2024-02-14T20:25:55;6.83;;;5.40;;
10275;SDS011;5183;51.190;6.820;2024-02-14T20:28:22;7.90;;;4.97;;
10275;SDS011;5183;51.190;6.820;2024-02-14T20:30:50;7.67;;;5.33;;
10275;SDS011;5183;51.190;6.820;2024-02-14T20:33:19;6.90;;;5.10;;
10275;SDS011;5183;51.190;6.820;2024-02-14T20:35:49;7.10;;;5.70;;
10275;SDS011;5183;51.190;6.820;2024-02-14T20:38:16;6.73;;;5.60;;
10275;SDS011;5183;51.190;6.820;2024-02-14T20:40:44;8.47;;;5.93;;
10275;SDS011;5183;51.190;6.820;2024-02-14T20:43:12;7.17;;;5.90;;
10275;SDS011;5183;51.190;6.820;2024-02-14T20:45:39;8.30;;;6.60;;
10275;SDS011;5183;51.190;6.820;2024-02-14T20:48:06;11.63;;;7.67;;
10275;SDS011;5183;51.190;6.820;2024-02-14T20:50:33;8.93;;;7.20;;
10275;SDS011;5183;51.190;6.820;2024-02-14T20:53:01;8.17;;;7.07;;
10275;SDS011;5183;51.190;6.820;2024-02-14T20:55:28;11.23;;;8.23;;
10275;SDS011;5183;51.190;6.820;2024-02-14T20:57:56;10.63;;;6.50;;
10275;SDS011;5183;51.190;6.820;2024-02-14T21:00:23;8.90;;;7.13;;
10275;SDS011;5183;51.190;6.820;2024-02-14T21:02:50;10.30;;;6.50;;
10275;SDS011;5183;51.190;6.820;2024-02-14T21:05:17;8.83;;;6.23;;
10275;SDS011;5183;51.190;6.820;2024-02-14T21:07:44;8.27;;;6.10;;
10275;SDS011;5183;51.190;6.820;2024-02-14T21:10:11;8.43;;;6.20;;
10275;SDS011;5183;51.190;6.820;2024-02-14T21:12:38;7.83;;;5.57;;
10275;SDS011;5183;51.190;6.820;2024-02-14T21:15:07;7.90;;;6.17;;
10275;SDS011;5183;51.190;6.820;2024-02-14T21:17:34;6.67;;;5.73;;
10275;SDS011;5183;51.190;6.820;2024-02-14T21:20:01;9.63;;;6.13;;
10275;SDS011;5183;51.190;6.820;2024-02-14T21:22:29;6.43;;;5.67;;
10275;SDS011;5183;51.190;6.820;2024-02-14T21:24:56;8.97;;;6.10;;
10275;SDS011;5183;51.190;6.820;2024-02-14T21:27:23;7.57;;;6.60;;
10275;SDS011;5183;51.190;6.820;2024-02-14T21:29:50;8.40;;;6.60;;
10275;SDS011;5183;51.190;6.820;2024-02-14T21:32:18;8.67;;;6.60;;
10275;SDS011;5183;51.190;6.820;2024-02-14T21:34:46;10.43;;;6.70;;
10275;SDS011;5183;51.190;6.820;2024-02-14T21:37:12;8.57;;;6.93;;
10275;SDS011;5183;51.190;6.820;2024-02-14T21:39:39;8.33;;;6.47;;
10275;SDS011;5183;51.190;6.820;2024-02-14T21:42:06;8.37;;;6.87;;
10275;SDS011;5183;51.190;6.820;2024-02-14T21:44:35;10.37;;;7.70;;
10275;SDS011;5183;51.190;6.820;2024-02-14T21:47:02;10.43;;;7.30;;
10275;SDS011;5183;51.190;6.820;2024-02-14T21:49:31;10.80;;;7.70;;
10275;SDS011;5183;51.190;6.820;2024-02-14T21:52:01;11.80;;;8.03;;
10275;SDS011;5183;51.190;6.820;2024-02-14T21:54:32;10.00;;;7.47;;
10275;SDS011;5183;51.190;6.820;2024-02-14T21:57:01;11.47;;;8.53;;
10275;SDS011;5183;51.190;6.820;2024-02-14T21:59:29;10.60;;;7.40;;
10275;SDS011;5183;51.190;6.820;2024-02-14T22:01:56;8.50;;;7.47;;
10275;SDS011;5183;51.190;6.820;2024-02-14T22:04:23;11.23;;;6.80;;
10275;SDS011;5183;51.190;6.820;2024-02-14T22:06:51;8.30;;;6.87;;
10275;SDS011;5183;51.190;6.820;2024-02-14T22:09:19;12.07;;;7.50;;
10275;SDS011;5183;51.190;6.820;2024-02-14T22:11:48;9.10;;;7.00;;
10275;SDS011;5183;51.190;6.820;2024-02-14T22:14:15;9.50;;;6.27;;
10275;SDS011;5183;51.190;6.820;2024-02-14T22:16:43;8.17;;;6.97;;
10275;SDS011;5183;51.190;6.820;2024-02-14T22:19:10;9.53;;;6.60;;
10275;SDS011;5183;51.190;6.820;2024-02-14T22:21:38;7.23;;;6.33;;
10275;SDS011;5183;51.190;6.820;2024-02-14T22:24:06;9.17;;;6.87;;
10275;SDS011;5183;51.190;6.820;2024-02-14T22:26:35;8.57;;;7.07;;
10275;SDS011;5183;51.190;6.820;2024-02-14T22:29:01;7.60;;;6.40;;
10275;SDS011;5183;51.190;6.820;2024-02-14T22:31:28;8.20;;;6.33;;
10275;SDS011;5183;51.190;6.820;2024-02-14T22:33:55;6.80;;;5.80;;
10275;SDS011;5183;51.190;6.820;2024-02-14T22:36:22;7.37;;;5.87;;
10275;SDS011;5183;51.190;6.820;2024-02-14T22:38:49;9.47;;;6.37;;
10275;SDS011;5183;51.190;6.820;2024-02-14T22:41:18;7.37;;;5.73;;
10275;SDS011;5183;51.190;6.820;2024-02-14T22:43:47;7.73;;;5.53;;
10275;SDS011;5183;51.190;6.820;2024-02-14T22:46:15;9.70;;;5.30;;
10275;SDS011;5183;51.190;6.820;2024-02-14T22:48:42;6.67;;;5.23;;
10275;SDS011;5183;51.190;6.820;2024-02-14T22:51:08;8.03;;;5.80;;
10275;SDS011;5183;51.190;6.820;2024-02-14T22:53:35;7.83;;;5.03;;
10275;SDS011;5183;51.190;6.820;2024-02-14T22:56:03;7.40;;;5.40;;
10275;SDS011;5183;51.190;6.820;2024-02-14T22:58:32;8.60;;;5.13;;
10275;SDS011;5183;51.190;6.820;2024-02-14T23:01:00;8.77;;;6.00;;
10275;SDS011;5183;51.190;6.820;2024-02-14T23:03:27;9.10;;;5.60;;
10275;SDS011;5183;51.190;6.820;2024-02-14T23:05:54;9.67;;;5.20;;
10275;SDS011;5183;51.190;6.820;2024-02-14T23:08:21;7.20;;;5.50;;
10275;SDS011;5183;51.190;6.820;2024-02-14T23:10:48;9.77;;;6.00;;
10275;SDS011;5183;51.190;6.820;2024-02-14T23:13:15;8.47;;;5.60;;
10275;SDS011;5183;51.190;6.820;2024-02-14T23:15:43;8.03;;;5.17;;
10275;SDS011;5183;51.190;6.820;2024-02-14T23:18:10;9.73;;;5.73;;
10275;SDS011;5183;51.190;6.820;2024-02-14T23:20:37;7.43;;;5.43;;
10275;SDS011;5183;51.190;6.820;2024-02-14T23:23:04;11.93;;;6.20;;
10275;SDS011;5183;51.190;6.820;2024-02-14T23:25:31;7.57;;;5.50;;
10275;SDS011;5183;51.190;6.820;2024-02-14T23:27:57;7.27;;;5.30;;
10275;SDS011;5183;51.190;6.820;2024-02-14T23:30:24;9.17;;;6.07;;
10275;SDS011;5183;51.190;6.820;2024-02-14T23:32:52;11.23;;;6.07;;
10275;SDS011;5183;51.190;6.820;2024-02-14T23:35:21;9.40;;;6.50;;
10275;SDS011;5183;51.190;6.820;2024-02-14T23:37:48;7.90;;;5.80;;
10275;SDS011;5183;51.190;6.820;2024-02-14T23:40:15;12.43;;;5.90;;
10275;SDS011;5183;51.190;6.820;2024-02-14T23:42:42;9.60;;;6.70;;
10275;SDS011;5183;51.190;6.820;2024-02-14T23:45:10;9.43;;;6.07;;
10275;SDS011;5183;51.190;6.820;2024-02-14T23:47:38;11.67;;;7.27;;
10275;SDS011;5183;51.190;6.820;2024-02-14T23:50:07;14.80;;;8.10;;
10275;SDS011;5183;51.190;6.820;2024-02-14T23:52:35;12.00;;;8.10;;
10275;SDS011;5183;51.190;6.820;2024-02-14T23:55:03;13.83;;;8.03;;
10275;SDS011;5183;51.190;6.820;2024-02-14T23:57:31;15.43;;;8.00;;
10275;SDS011;5183;51.190;6.820;2024-02-14T23:59:58;12.47;;;8.00;;
